Kiowa, Oklahoma
Current Conditions -  °F | °C
As of 10:16 PM on Wednesday 17 Dec 2014 (Local Time) from KMLC Reporting Station
Overcast Overcast  
Wind Chill: 34°   Ceiling: 3600
Heat Index: 39°   Visibility: 10mi
Dew Point: 37°   Wind: 7mph
Humidity: 93%   Direction: 130°SE
Pressure: 30.16"   Gusts: NA
Location:  34.72°N, 95.9°W
Report Text: KMLC 180416Z AUTO 13006KT 10SM FEW008 BKN036 OVC065 04/03 A3016 RMK AO2 T00390028
Loading
Personal Weather Stations






























Interactive Weather Map New forecast layout! Learn more

10-Day Weather Forecast

Advertisements
Track Severe Weather on mobile